Terminal Aerodrome Forecast
Issued by NWS Omaha/Valley, NE

Home | Current Version | Previous Version | Text Only | Print | Product List | Glossary On
Versions: 1 2 3 4 5 6 7 8 9 10 11 12 13 14 15 16 17 18 19 20 21 22 23 24 25 26 27 28 29 30 31 32 33 34 35 36 37 38 39 40
286
FTUS43 KOAX 260520
TAFOFK
TAF
KOFK 260520Z 2606/2706 26005KT P6SM BKN100
     FM260900 29002KT P6SM SCT250
     FM261800 08007KT P6SM SCT250 PROB30 2618/2624 4SM -TSRA
      BKN040CB BKN250
     FM270400 11007KT P6SM BKN080=

USA.gov is the U.S. government's official web portal to all federal, state and local government web resources and services.